sensor_id;sensor_type;location;lat;lon;timestamp;P1;durP1;ratioP1;P2;durP2;ratioP2
61322;SDS011;47203;48.428;11.974;2023-04-16T00:01:13;3.10;;;2.75;;
61322;SDS011;47203;48.428;11.974;2023-04-16T00:03:18;3.55;;;2.47;;
61322;SDS011;47203;48.428;11.974;2023-04-16T00:05:23;3.55;;;2.92;;
61322;SDS011;47203;48.428;11.974;2023-04-16T00:07:28;3.50;;;3.10;;
61322;SDS011;47203;48.428;11.974;2023-04-16T00:09:36;3.05;;;2.75;;
61322;SDS011;47203;48.428;11.974;2023-04-16T00:11:41;4.70;;;2.42;;
61322;SDS011;47203;48.428;11.974;2023-04-16T00:13:46;3.85;;;2.92;;
61322;SDS011;47203;48.428;11.974;2023-04-16T00:15:51;4.15;;;2.80;;
61322;SDS011;47203;48.428;11.974;2023-04-16T00:17:56;3.20;;;2.88;;
61322;SDS011;47203;48.428;11.974;2023-04-16T00:20:01;4.18;;;2.67;;
61322;SDS011;47203;48.428;11.974;2023-04-16T00:22:06;5.80;;;3.53;;
61322;SDS011;47203;48.428;11.974;2023-04-16T00:24:11;3.70;;;2.65;;
61322;SDS011;47203;48.428;11.974;2023-04-16T00:26:19;3.05;;;2.65;;
61322;SDS011;47203;48.428;11.974;2023-04-16T00:28:24;4.18;;;2.50;;
61322;SDS011;47203;48.428;11.974;2023-04-16T00:30:28;3.35;;;2.63;;
61322;SDS011;47203;48.428;11.974;2023-04-16T00:32:33;3.30;;;3.00;;
61322;SDS011;47203;48.428;11.974;2023-04-16T00:34:38;3.55;;;3.13;;
61322;SDS011;47203;48.428;11.974;2023-04-16T00:36:43;3.08;;;2.58;;
61322;SDS011;47203;48.428;11.974;2023-04-16T00:38:48;3.30;;;2.75;;
61322;SDS011;47203;48.428;11.974;2023-04-16T00:40:53;3.85;;;3.17;;
61322;SDS011;47203;48.428;11.974;2023-04-16T00:43:01;3.80;;;3.00;;
61322;SDS011;47203;48.428;11.974;2023-04-16T00:45:07;3.97;;;3.40;;
61322;SDS011;47203;48.428;11.974;2023-04-16T00:47:13;3.30;;;2.88;;
61322;SDS011;47203;48.428;11.974;2023-04-16T00:49:18;3.85;;;3.15;;
61322;SDS011;47203;48.428;11.974;2023-04-16T00:51:23;3.30;;;2.90;;
61322;SDS011;47203;48.428;11.974;2023-04-16T00:53:28;3.42;;;2.92;;
61322;SDS011;47203;48.428;11.974;2023-04-16T00:55:34;3.60;;;2.92;;
61322;SDS011;47203;48.428;11.974;2023-04-16T00:57:39;4.20;;;3.15;;
61322;SDS011;47203;48.428;11.974;2023-04-16T00:59:47;3.63;;;2.95;;
61322;SDS011;47203;48.428;11.974;2023-04-16T01:01:52;4.60;;;3.10;;
61322;SDS011;47203;48.428;11.974;2023-04-16T01:03:57;3.75;;;3.08;;
61322;SDS011;47203;48.428;11.974;2023-04-16T01:06:02;4.22;;;3.10;;
61322;SDS011;47203;48.428;11.974;2023-04-16T01:08:13;4.13;;;3.25;;
61322;SDS011;47203;48.428;11.974;2023-04-16T01:10:19;3.78;;;3.00;;
61322;SDS011;47203;48.428;11.974;2023-04-16T01:12:24;3.50;;;3.13;;
61322;SDS011;47203;48.428;11.974;2023-04-16T01:14:29;3.30;;;2.83;;
61322;SDS011;47203;48.428;11.974;2023-04-16T01:16:39;4.40;;;3.05;;
61322;SDS011;47203;48.428;11.974;2023-04-16T01:18:44;4.70;;;2.60;;
61322;SDS011;47203;48.428;11.974;2023-04-16T01:20:52;5.57;;;2.80;;
61322;SDS011;47203;48.428;11.974;2023-04-16T01:22:57;3.90;;;3.10;;
61322;SDS011;47203;48.428;11.974;2023-04-16T01:25:01;3.35;;;2.90;;
61322;SDS011;47203;48.428;11.974;2023-04-16T01:27:06;3.55;;;2.92;;
61322;SDS011;47203;48.428;11.974;2023-04-16T01:29:11;3.85;;;2.58;;
61322;SDS011;47203;48.428;11.974;2023-04-16T01:31:17;3.53;;;2.58;;
61322;SDS011;47203;48.428;11.974;2023-04-16T01:33:28;3.83;;;2.70;;
61322;SDS011;47203;48.428;11.974;2023-04-16T01:35:33;4.32;;;2.78;;
61322;SDS011;47203;48.428;11.974;2023-04-16T01:37:41;3.00;;;2.22;;
61322;SDS011;47203;48.428;11.974;2023-04-16T01:39:46;3.40;;;2.33;;
61322;SDS011;47203;48.428;11.974;2023-04-16T01:41:51;2.97;;;2.28;;
61322;SDS011;47203;48.428;11.974;2023-04-16T01:43:56;3.38;;;2.42;;
61322;SDS011;47203;48.428;11.974;2023-04-16T01:46:10;2.85;;;2.28;;
61322;SDS011;47203;48.428;11.974;2023-04-16T01:48:16;3.30;;;2.50;;
61322;SDS011;47203;48.428;11.974;2023-04-16T01:50:21;2.75;;;2.28;;
61322;SDS011;47203;48.428;11.974;2023-04-16T01:52:27;3.30;;;2.60;;
61322;SDS011;47203;48.428;11.974;2023-04-16T01:54:34;2.72;;;2.00;;
61322;SDS011;47203;48.428;11.974;2023-04-16T01:56:39;3.35;;;2.50;;
61322;SDS011;47203;48.428;11.974;2023-04-16T01:58:44;3.92;;;2.60;;
61322;SDS011;47203;48.428;11.974;2023-04-16T02:00:51;3.70;;;2.28;;
61322;SDS011;47203;48.428;11.974;2023-04-16T02:02:56;2.72;;;2.05;;
61322;SDS011;47203;48.428;11.974;2023-04-16T02:05:02;4.38;;;2.10;;
61322;SDS011;47203;48.428;11.974;2023-04-16T02:07:09;3.40;;;2.30;;
61322;SDS011;47203;48.428;11.974;2023-04-16T02:09:14;3.25;;;2.20;;
61322;SDS011;47203;48.428;11.974;2023-04-16T02:11:22;3.10;;;2.22;;
61322;SDS011;47203;48.428;11.974;2023-04-16T02:13:28;3.05;;;2.55;;
61322;SDS011;47203;48.428;11.974;2023-04-16T02:15:33;2.97;;;2.50;;
61322;SDS011;47203;48.428;11.974;2023-04-16T02:17:37;3.75;;;2.47;;
61322;SDS011;47203;48.428;11.974;2023-04-16T02:19:43;3.28;;;2.30;;
61322;SDS011;47203;48.428;11.974;2023-04-16T02:21:50;3.42;;;2.63;;
61322;SDS011;47203;48.428;11.974;2023-04-16T02:23:55;4.13;;;2.83;;
61322;SDS011;47203;48.428;11.974;2023-04-16T02:26:03;2.88;;;2.58;;
61322;SDS011;47203;48.428;11.974;2023-04-16T02:28:11;3.20;;;2.30;;
61322;SDS011;47203;48.428;11.974;2023-04-16T02:30:19;3.17;;;2.15;;
61322;SDS011;47203;48.428;11.974;2023-04-16T02:32:25;3.78;;;2.70;;
61322;SDS011;47203;48.428;11.974;2023-04-16T02:34:30;3.40;;;2.47;;
61322;SDS011;47203;48.428;11.974;2023-04-16T02:36:36;2.65;;;2.05;;
61322;SDS011;47203;48.428;11.974;2023-04-16T02:38:41;3.50;;;2.65;;
61322;SDS011;47203;48.428;11.974;2023-04-16T02:40:46;3.35;;;2.40;;
61322;SDS011;47203;48.428;11.974;2023-04-16T02:42:51;3.22;;;2.35;;
61322;SDS011;47203;48.428;11.974;2023-04-16T02:44:58;3.78;;;2.50;;
61322;SDS011;47203;48.428;11.974;2023-04-16T02:47:03;3.88;;;2.92;;
61322;SDS011;47203;48.428;11.974;2023-04-16T02:49:08;3.47;;;2.70;;
61322;SDS011;47203;48.428;11.974;2023-04-16T02:51:13;4.18;;;2.80;;
61322;SDS011;47203;48.428;11.974;2023-04-16T02:53:18;3.55;;;3.00;;
61322;SDS011;47203;48.428;11.974;2023-04-16T02:55:23;3.50;;;2.70;;
61322;SDS011;47203;48.428;11.974;2023-04-16T02:57:30;3.55;;;2.70;;
61322;SDS011;47203;48.428;11.974;2023-04-16T02:59:35;3.45;;;2.70;;
61322;SDS011;47203;48.428;11.974;2023-04-16T03:01:42;3.65;;;2.85;;
61322;SDS011;47203;48.428;11.974;2023-04-16T03:03:47;3.78;;;2.75;;
61322;SDS011;47203;48.428;11.974;2023-04-16T03:05:52;4.47;;;3.25;;
61322;SDS011;47203;48.428;11.974;2023-04-16T03:07:57;4.97;;;2.78;;
61322;SDS011;47203;48.428;11.974;2023-04-16T03:10:02;3.60;;;2.70;;
61322;SDS011;47203;48.428;11.974;2023-04-16T03:12:07;4.40;;;2.60;;
61322;SDS011;47203;48.428;11.974;2023-04-16T03:14:12;6.80;;;3.33;;
61322;SDS011;47203;48.428;11.974;2023-04-16T03:16:17;4.47;;;2.80;;
61322;SDS011;47203;48.428;11.974;2023-04-16T03:18:25;4.03;;;2.90;;
61322;SDS011;47203;48.428;11.974;2023-04-16T03:20:29;3.95;;;3.03;;
61322;SDS011;47203;48.428;11.974;2023-04-16T03:22:35;5.50;;;3.50;;
61322;SDS011;47203;48.428;11.974;2023-04-16T03:24:39;4.18;;;3.40;;
61322;SDS011;47203;48.428;11.974;2023-04-16T03:26:44;4.45;;;3.00;;
61322;SDS011;47203;48.428;11.974;2023-04-16T03:28:49;4.32;;;3.20;;
61322;SDS011;47203;48.428;11.974;2023-04-16T03:30:54;4.20;;;3.17;;
61322;SDS011;47203;48.428;11.974;2023-04-16T03:32:59;5.22;;;3.53;;
61322;SDS011;47203;48.428;11.974;2023-04-16T03:35:07;4.22;;;3.13;;
61322;SDS011;47203;48.428;11.974;2023-04-16T03:37:13;4.65;;;3.10;;
61322;SDS011;47203;48.428;11.974;2023-04-16T03:39:18;4.40;;;3.22;;
61322;SDS011;47203;48.428;11.974;2023-04-16T03:41:23;3.53;;;3.10;;
61322;SDS011;47203;48.428;11.974;2023-04-16T03:43:28;4.20;;;3.42;;
61322;SDS011;47203;48.428;11.974;2023-04-16T03:45:33;4.47;;;3.65;;
61322;SDS011;47203;48.428;11.974;2023-04-16T03:47:38;5.00;;;3.80;;
61322;SDS011;47203;48.428;11.974;2023-04-16T03:49:43;5.90;;;4.35;;
61322;SDS011;47203;48.428;11.974;2023-04-16T03:51:51;5.38;;;3.78;;
61322;SDS011;47203;48.428;11.974;2023-04-16T03:53:56;5.30;;;4.03;;
61322;SDS011;47203;48.428;11.974;2023-04-16T03:56:02;5.25;;;3.83;;
61322;SDS011;47203;48.428;11.974;2023-04-16T03:58:07;4.85;;;3.80;;
61322;SDS011;47203;48.428;11.974;2023-04-16T04:00:12;3.97;;;3.45;;
61322;SDS011;47203;48.428;11.974;2023-04-16T04:02:46;5.05;;;3.65;;
61322;SDS011;47203;48.428;11.974;2023-04-16T04:04:54;5.00;;;4.07;;
61322;SDS011;47203;48.428;11.974;2023-04-16T04:07:01;5.63;;;4.28;;
61322;SDS011;47203;48.428;11.974;2023-04-16T04:09:06;7.88;;;3.55;;
61322;SDS011;47203;48.428;11.974;2023-04-16T04:11:11;4.45;;;3.70;;
61322;SDS011;47203;48.428;11.974;2023-04-16T04:13:18;5.95;;;4.10;;
61322;SDS011;47203;48.428;11.974;2023-04-16T04:15:24;5.40;;;3.90;;
61322;SDS011;47203;48.428;11.974;2023-04-16T04:17:29;4.57;;;3.85;;
61322;SDS011;47203;48.428;11.974;2023-04-16T04:19:34;4.75;;;3.90;;
61322;SDS011;47203;48.428;11.974;2023-04-16T04:21:51;4.97;;;4.05;;
61322;SDS011;47203;48.428;11.974;2023-04-16T04:23:58;5.53;;;4.57;;
61322;SDS011;47203;48.428;11.974;2023-04-16T04:26:04;4.88;;;4.03;;
61322;SDS011;47203;48.428;11.974;2023-04-16T04:28:09;6.22;;;4.38;;
61322;SDS011;47203;48.428;11.974;2023-04-16T04:30:13;4.82;;;3.97;;
61322;SDS011;47203;48.428;11.974;2023-04-16T04:32:18;6.07;;;4.85;;
61322;SDS011;47203;48.428;11.974;2023-04-16T04:34:23;5.03;;;4.15;;
61322;SDS011;47203;48.428;11.974;2023-04-16T04:36:31;4.88;;;4.18;;
61322;SDS011;47203;48.428;11.974;2023-04-16T04:38:36;6.40;;;4.20;;
61322;SDS011;47203;48.428;11.974;2023-04-16T04:40:44;6.13;;;4.65;;
61322;SDS011;47203;48.428;11.974;2023-04-16T04:42:51;5.45;;;4.30;;
61322;SDS011;47203;48.428;11.974;2023-04-16T04:44:57;5.35;;;4.30;;
61322;SDS011;47203;48.428;11.974;2023-04-16T04:47:04;5.72;;;4.30;;
61322;SDS011;47203;48.428;11.974;2023-04-16T04:49:09;5.53;;;4.72;;
61322;SDS011;47203;48.428;11.974;2023-04-16T04:51:14;4.90;;;4.30;;
61322;SDS011;47203;48.428;11.974;2023-04-16T04:53:20;4.97;;;4.20;;
61322;SDS011;47203;48.428;11.974;2023-04-16T04:55:25;5.47;;;4.45;;
61322;SDS011;47203;48.428;11.974;2023-04-16T04:57:34;4.75;;;4.07;;
61322;SDS011;47203;48.428;11.974;2023-04-16T04:59:39;5.28;;;4.30;;
61322;SDS011;47203;48.428;11.974;2023-04-16T05:01:45;4.72;;;3.88;;
61322;SDS011;47203;48.428;11.974;2023-04-16T05:03:50;5.45;;;4.45;;
61322;SDS011;47203;48.428;11.974;2023-04-16T05:05:55;5.93;;;4.53;;
61322;SDS011;47203;48.428;11.974;2023-04-16T05:08:00;5.88;;;4.63;;
61322;SDS011;47203;48.428;11.974;2023-04-16T05:10:06;5.97;;;4.47;;
61322;SDS011;47203;48.428;11.974;2023-04-16T05:12:12;5.07;;;4.47;;
61322;SDS011;47203;48.428;11.974;2023-04-16T05:14:20;4.68;;;3.88;;
61322;SDS011;47203;48.428;11.974;2023-04-16T05:16:25;5.65;;;3.80;;
61322;SDS011;47203;48.428;11.974;2023-04-16T05:18:29;4.40;;;3.80;;
61322;SDS011;47203;48.428;11.974;2023-04-16T05:20:34;4.63;;;3.97;;
61322;SDS011;47203;48.428;11.974;2023-04-16T05:22:40;5.18;;;4.20;;
61322;SDS011;47203;48.428;11.974;2023-04-16T05:24:45;4.03;;;3.50;;
61322;SDS011;47203;48.428;11.974;2023-04-16T05:26:49;4.85;;;4.07;;
61322;SDS011;47203;48.428;11.974;2023-04-16T05:28:54;4.57;;;3.92;;
61322;SDS011;47203;48.428;11.974;2023-04-16T05:31:02;5.15;;;3.88;;
61322;SDS011;47203;48.428;11.974;2023-04-16T05:33:07;4.50;;;3.80;;
61322;SDS011;47203;48.428;11.974;2023-04-16T05:35:12;4.60;;;4.10;;
61322;SDS011;47203;48.428;11.974;2023-04-16T05:37:18;4.75;;;3.95;;
61322;SDS011;47203;48.428;11.974;2023-04-16T05:39:23;5.15;;;3.67;;
61322;SDS011;47203;48.428;11.974;2023-04-16T05:41:27;4.55;;;3.78;;
61322;SDS011;47203;48.428;11.974;2023-04-16T05:43:32;4.43;;;3.58;;
61322;SDS011;47203;48.428;11.974;2023-04-16T05:45:37;3.92;;;3.28;;
61322;SDS011;47203;48.428;11.974;2023-04-16T05:47:45;4.13;;;3.60;;
61322;SDS011;47203;48.428;11.974;2023-04-16T05:49:50;4.50;;;3.78;;
61322;SDS011;47203;48.428;11.974;2023-04-16T05:51:55;4.40;;;3.70;;
61322;SDS011;47203;48.428;11.974;2023-04-16T05:54:00;4.47;;;3.30;;
61322;SDS011;47203;48.428;11.974;2023-04-16T05:56:05;4.72;;;3.92;;
61322;SDS011;47203;48.428;11.974;2023-04-16T05:58:10;4.47;;;3.83;;
61322;SDS011;47203;48.428;11.974;2023-04-16T06:00:15;4.15;;;3.28;;
61322;SDS011;47203;48.428;11.974;2023-04-16T06:02:21;4.75;;;3.88;;
61322;SDS011;47203;48.428;11.974;2023-04-16T06:04:28;3.72;;;3.20;;
61322;SDS011;47203;48.428;11.974;2023-04-16T06:06:34;5.15;;;3.92;;
61322;SDS011;47203;48.428;11.974;2023-04-16T06:08:39;4.97;;;4.28;;
61322;SDS011;47203;48.428;11.974;2023-04-16T06:10:44;4.30;;;3.90;;
61322;SDS011;47203;48.428;11.974;2023-04-16T06:12:50;4.70;;;3.80;;
61322;SDS011;47203;48.428;11.974;2023-04-16T06:14:55;4.78;;;3.65;;
61322;SDS011;47203;48.428;11.974;2023-04-16T06:17:00;5.03;;;3.58;;
61322;SDS011;47203;48.428;11.974;2023-04-16T06:19:04;5.60;;;4.13;;
61322;SDS011;47203;48.428;11.974;2023-04-16T06:21:13;7.85;;;4.10;;
61322;SDS011;47203;48.428;11.974;2023-04-16T06:23:17;3.90;;;3.20;;
61322;SDS011;47203;48.428;11.974;2023-04-16T06:25:22;5.38;;;4.15;;
61322;SDS011;47203;48.428;11.974;2023-04-16T06:27:27;4.68;;;3.47;;
61322;SDS011;47203;48.428;11.974;2023-04-16T06:29:32;3.80;;;3.15;;
61322;SDS011;47203;48.428;11.974;2023-04-16T06:31:42;4.53;;;3.70;;
61322;SDS011;47203;48.428;11.974;2023-04-16T06:33:47;4.30;;;3.30;;
61322;SDS011;47203;48.428;11.974;2023-04-16T06:35:51;3.92;;;3.22;;
61322;SDS011;47203;48.428;11.974;2023-04-16T06:37:59;3.97;;;2.90;;
61322;SDS011;47203;48.428;11.974;2023-04-16T06:40:05;3.92;;;2.83;;
61322;SDS011;47203;48.428;11.974;2023-04-16T06:42:10;3.88;;;3.40;;
61322;SDS011;47203;48.428;11.974;2023-04-16T06:44:16;3.50;;;3.10;;
61322;SDS011;47203;48.428;11.974;2023-04-16T06:46:21;4.50;;;3.70;;
61322;SDS011;47203;48.428;11.974;2023-04-16T06:48:26;4.40;;;3.67;;
61322;SDS011;47203;48.428;11.974;2023-04-16T06:50:31;4.45;;;3.40;;
61322;SDS011;47203;48.428;11.974;2023-04-16T06:52:36;3.83;;;3.15;;
61322;SDS011;47203;48.428;11.974;2023-04-16T06:54:43;3.85;;;2.97;;
61322;SDS011;47203;48.428;11.974;2023-04-16T06:56:48;4.50;;;3.50;;
61322;SDS011;47203;48.428;11.974;2023-04-16T06:58:53;4.55;;;3.22;;
61322;SDS011;47203;48.428;11.974;2023-04-16T07:00:59;4.30;;;3.40;;
61322;SDS011;47203;48.428;11.974;2023-04-16T07:03:04;4.05;;;3.25;;
61322;SDS011;47203;48.428;11.974;2023-04-16T07:05:09;4.25;;;3.20;;
61322;SDS011;47203;48.428;11.974;2023-04-16T07:07:14;4.03;;;3.10;;
61322;SDS011;47203;48.428;11.974;2023-04-16T07:09:19;5.00;;;3.50;;
61322;SDS011;47203;48.428;11.974;2023-04-16T07:11:26;3.92;;;3.35;;
61322;SDS011;47203;48.428;11.974;2023-04-16T07:13:32;4.43;;;3.58;;
61322;SDS011;47203;48.428;11.974;2023-04-16T07:15:36;4.45;;;3.63;;
61322;SDS011;47203;48.428;11.974;2023-04-16T07:17:42;3.75;;;3.20;;
61322;SDS011;47203;48.428;11.974;2023-04-16T07:19:47;3.58;;;3.00;;
61322;SDS011;47203;48.428;11.974;2023-04-16T07:21:52;4.40;;;3.45;;
61322;SDS011;47203;48.428;11.974;2023-04-16T07:23:57;3.95;;;3.20;;
61322;SDS011;47203;48.428;11.974;2023-04-16T07:26:02;3.85;;;2.83;;
61322;SDS011;47203;48.428;11.974;2023-04-16T07:28:10;4.18;;;2.88;;
61322;SDS011;47203;48.428;11.974;2023-04-16T07:30:17;3.92;;;2.90;;
61322;SDS011;47203;48.428;11.974;2023-04-16T07:32:22;3.28;;;2.60;;
61322;SDS011;47203;48.428;11.974;2023-04-16T07:34:27;4.97;;;3.28;;
61322;SDS011;47203;48.428;11.974;2023-04-16T07:36:32;3.58;;;2.90;;
61322;SDS011;47203;48.428;11.974;2023-04-16T07:38:37;3.50;;;2.65;;
61322;SDS011;47203;48.428;11.974;2023-04-16T07:40:41;3.30;;;2.42;;
61322;SDS011;47203;48.428;11.974;2023-04-16T07:42:46;3.53;;;2.45;;
61322;SDS011;47203;48.428;11.974;2023-04-16T07:44:54;3.60;;;2.63;;
61322;SDS011;47203;48.428;11.974;2023-04-16T07:46:59;4.22;;;3.30;;
61322;SDS011;47203;48.428;11.974;2023-04-16T07:49:06;3.67;;;2.88;;
61322;SDS011;47203;48.428;11.974;2023-04-16T07:51:11;3.90;;;2.70;;
61322;SDS011;47203;48.428;11.974;2023-04-16T07:53:16;3.38;;;2.42;;
61322;SDS011;47203;48.428;11.974;2023-04-16T07:55:21;4.38;;;3.03;;
61322;SDS011;47203;48.428;11.974;2023-04-16T07:57:26;2.92;;;2.28;;
61322;SDS011;47203;48.428;11.974;2023-04-16T07:59:30;3.55;;;2.47;;
61322;SDS011;47203;48.428;11.974;2023-04-16T08:01:38;3.88;;;2.72;;
61322;SDS011;47203;48.428;11.974;2023-04-16T08:03:43;4.25;;;3.05;;
61322;SDS011;47203;48.428;11.974;2023-04-16T08:05:48;3.55;;;2.70;;
61322;SDS011;47203;48.428;11.974;2023-04-16T08:07:53;3.90;;;3.00;;
61322;SDS011;47203;48.428;11.974;2023-04-16T08:09:58;3.95;;;2.88;;
61322;SDS011;47203;48.428;11.974;2023-04-16T08:12:03;3.58;;;2.63;;
61322;SDS011;47203;48.428;11.974;2023-04-16T08:14:08;3.30;;;2.40;;
61322;SDS011;47203;48.428;11.974;2023-04-16T08:16:13;2.65;;;1.92;;
61322;SDS011;47203;48.428;11.974;2023-04-16T08:18:20;3.10;;;2.10;;
61322;SDS011;47203;48.428;11.974;2023-04-16T08:20:25;2.78;;;2.00;;
61322;SDS011;47203;48.428;11.974;2023-04-16T08:22:31;3.28;;;1.80;;
61322;SDS011;47203;48.428;11.974;2023-04-16T08:24:36;3.40;;;1.88;;
61322;SDS011;47203;48.428;11.974;2023-04-16T08:26:41;2.15;;;1.52;;
61322;SDS011;47203;48.428;11.974;2023-04-16T08:28:45;2.70;;;2.33;;
61322;SDS011;47203;48.428;11.974;2023-04-16T08:30:50;2.85;;;2.10;;
61322;SDS011;47203;48.428;11.974;2023-04-16T08:32:56;2.13;;;1.73;;
61322;SDS011;47203;48.428;11.974;2023-04-16T08:35:04;3.65;;;2.30;;
61322;SDS011;47203;48.428;11.974;2023-04-16T08:37:10;3.13;;;2.33;;
61322;SDS011;47203;48.428;11.974;2023-04-16T08:39:14;3.45;;;2.45;;
61322;SDS011;47203;48.428;11.974;2023-04-16T08:41:20;3.13;;;2.30;;
61322;SDS011;47203;48.428;11.974;2023-04-16T08:43:27;2.65;;;2.05;;
61322;SDS011;47203;48.428;11.974;2023-04-16T08:45:36;2.33;;;1.70;;
61322;SDS011;47203;48.428;11.974;2023-04-16T08:47:43;2.75;;;1.95;;
61322;SDS011;47203;48.428;11.974;2023-04-16T08:49:50;4.07;;;2.30;;
61322;SDS011;47203;48.428;11.974;2023-04-16T08:52:01;2.40;;;1.85;;
61322;SDS011;47203;48.428;11.974;2023-04-16T08:54:11;2.35;;;1.60;;
61322;SDS011;47203;48.428;11.974;2023-04-16T08:56:22;2.50;;;1.60;;
61322;SDS011;47203;48.428;11.974;2023-04-16T08:58:28;2.33;;;1.70;;
61322;SDS011;47203;48.428;11.974;2023-04-16T09:00:36;2.40;;;1.88;;
61322;SDS011;47203;48.428;11.974;2023-04-16T09:02:42;2.28;;;1.98;;
61322;SDS011;47203;48.428;11.974;2023-04-16T09:04:48;2.25;;;1.67;;
61322;SDS011;47203;48.428;11.974;2023-04-16T09:06:55;2.80;;;1.85;;
61322;SDS011;47203;48.428;11.974;2023-04-16T09:09:05;2.63;;;1.80;;
61322;SDS011;47203;48.428;11.974;2023-04-16T09:11:12;2.10;;;1.50;;
61322;SDS011;47203;48.428;11.974;2023-04-16T09:13:17;1.98;;;1.50;;
61322;SDS011;47203;48.428;11.974;2023-04-16T09:15:24;1.75;;;1.50;;
61322;SDS011;47203;48.428;11.974;2023-04-16T09:17:30;2.03;;;1.60;;
61322;SDS011;47203;48.428;11.974;2023-04-16T09:19:34;2.47;;;1.50;;
61322;SDS011;47203;48.428;11.974;2023-04-16T09:21:39;1.90;;;1.30;;
61322;SDS011;47203;48.428;11.974;2023-04-16T09:23:45;1.30;;;1.17;;
61322;SDS011;47203;48.428;11.974;2023-04-16T09:25:53;1.58;;;1.20;;
61322;SDS011;47203;48.428;11.974;2023-04-16T09:27:59;2.10;;;1.40;;
61322;SDS011;47203;48.428;11.974;2023-04-16T09:30:17;1.38;;;1.02;;
61322;SDS011;47203;48.428;11.974;2023-04-16T09:32:23;1.50;;;1.10;;
61322;SDS011;47203;48.428;11.974;2023-04-16T09:34:30;1.05;;;0.95;;
61322;SDS011;47203;48.428;11.974;2023-04-16T09:36:36;1.75;;;1.40;;
61322;SDS011;47203;48.428;11.974;2023-04-16T09:38:44;2.55;;;1.27;;
61322;SDS011;47203;48.428;11.974;2023-04-16T09:40:56;1.33;;;1.00;;
61322;SDS011;47203;48.428;11.974;2023-04-16T09:43:10;1.25;;;1.15;;
61322;SDS011;47203;48.428;11.974;2023-04-16T09:45:16;1.25;;;1.10;;
61322;SDS011;47203;48.428;11.974;2023-04-16T09:47:21;1.38;;;1.10;;
61322;SDS011;47203;48.428;11.974;2023-04-16T09:49:27;1.45;;;0.90;;
61322;SDS011;47203;48.428;11.974;2023-04-16T09:51:35;0.77;;;0.77;;
61322;SDS011;47203;48.428;11.974;2023-04-16T09:53:40;1.05;;;0.88;;
61322;SDS011;47203;48.428;11.974;2023-04-16T09:55:45;1.70;;;1.20;;
61322;SDS011;47203;48.428;11.974;2023-04-16T09:57:59;1.15;;;0.90;;
61322;SDS011;47203;48.428;11.974;2023-04-16T10:00:05;1.10;;;0.85;;
61322;SDS011;47203;48.428;11.974;2023-04-16T10:02:12;1.02;;;0.93;;
61322;SDS011;47203;48.428;11.974;2023-04-16T10:04:17;1.20;;;1.08;;
61322;SDS011;47203;48.428;11.974;2023-04-16T10:06:23;1.25;;;1.00;;
61322;SDS011;47203;48.428;11.974;2023-04-16T10:08:28;1.08;;;0.90;;
61322;SDS011;47203;48.428;11.974;2023-04-16T10:10:33;1.30;;;0.95;;
61322;SDS011;47203;48.428;11.974;2023-04-16T10:12:38;1.10;;;1.00;;
61322;SDS011;47203;48.428;11.974;2023-04-16T10:14:46;0.93;;;0.88;;
61322;SDS011;47203;48.428;11.974;2023-04-16T10:16:52;1.17;;;0.90;;
61322;SDS011;47203;48.428;11.974;2023-04-16T10:18:57;1.27;;;0.85;;
61322;SDS011;47203;48.428;11.974;2023-04-16T10:21:03;1.15;;;0.95;;
61322;SDS011;47203;48.428;11.974;2023-04-16T10:23:09;0.88;;;0.68;;
61322;SDS011;47203;48.428;11.974;2023-04-16T10:25:15;0.88;;;0.73;;
61322;SDS011;47203;48.428;11.974;2023-04-16T10:27:20;0.88;;;0.80;;
61322;SDS011;47203;48.428;11.974;2023-04-16T10:29:26;0.80;;;0.63;;
61322;SDS011;47203;48.428;11.974;2023-04-16T10:31:35;0.90;;;0.63;;
61322;SDS011;47203;48.428;11.974;2023-04-16T10:33:42;0.98;;;0.80;;
61322;SDS011;47203;48.428;11.974;2023-04-16T10:35:48;0.80;;;0.55;;
61322;SDS011;47203;48.428;11.974;2023-04-16T10:38:20;1.38;;;0.90;;
61322;SDS011;47203;48.428;11.974;2023-04-16T10:40:26;1.58;;;0.98;;
61322;SDS011;47203;48.428;11.974;2023-04-16T10:42:31;1.85;;;1.00;;
61322;SDS011;47203;48.428;11.974;2023-04-16T10:44:36;1.60;;;1.23;;
61322;SDS011;47203;48.428;11.974;2023-04-16T10:46:48;0.80;;;0.70;;
61322;SDS011;47203;48.428;11.974;2023-04-16T10:48:53;1.00;;;0.70;;
61322;SDS011;47203;48.428;11.974;2023-04-16T10:50:59;0.77;;;0.77;;
61322;SDS011;47203;48.428;11.974;2023-04-16T10:53:17;1.15;;;0.70;;
61322;SDS011;47203;48.428;11.974;2023-04-16T10:55:23;0.63;;;0.50;;
61322;SDS011;47203;48.428;11.974;2023-04-16T10:57:28;0.73;;;0.60;;
61322;SDS011;47203;48.428;11.974;2023-04-16T10:59:34;0.50;;;0.50;;
61322;SDS011;47203;48.428;11.974;2023-04-16T11:01:41;0.60;;;0.60;;
61322;SDS011;47203;48.428;11.974;2023-04-16T11:03:50;0.50;;;0.50;;
61322;SDS011;47203;48.428;11.974;2023-04-16T11:06:08;0.90;;;0.80;;
61322;SDS011;47203;48.428;11.974;2023-04-16T11:08:14;1.17;;;0.63;;
61322;SDS011;47203;48.428;11.974;2023-04-16T11:10:19;0.73;;;0.70;;
61322;SDS011;47203;48.428;11.974;2023-04-16T11:12:25;0.68;;;0.43;;
61322;SDS011;47203;48.428;11.974;2023-04-16T11:14:36;1.00;;;0.60;;
61322;SDS011;47203;48.428;11.974;2023-04-16T11:16:42;0.50;;;0.50;;
61322;SDS011;47203;48.428;11.974;2023-04-16T11:18:50;1.05;;;0.70;;
61322;SDS011;47203;48.428;11.974;2023-04-16T11:20:57;0.82;;;0.60;;
61322;SDS011;47203;48.428;11.974;2023-04-16T11:23:02;1.25;;;0.90;;
61322;SDS011;47203;48.428;11.974;2023-04-16T11:25:18;0.70;;;0.60;;
61322;SDS011;47203;48.428;11.974;2023-04-16T11:27:23;1.08;;;0.80;;
61322;SDS011;47203;48.428;11.974;2023-04-16T11:29:28;1.00;;;0.70;;
61322;SDS011;47203;48.428;11.974;2023-04-16T11:31:33;1.30;;;0.65;;
61322;SDS011;47203;48.428;11.974;2023-04-16T11:33:38;0.77;;;0.63;;
61322;SDS011;47203;48.428;11.974;2023-04-16T11:35:46;1.33;;;0.93;;
61322;SDS011;47203;48.428;11.974;2023-04-16T11:38:00;1.13;;;0.70;;
61322;SDS011;47203;48.428;11.974;2023-04-16T11:40:07;1.27;;;0.95;;
61322;SDS011;47203;48.428;11.974;2023-04-16T11:42:17;0.65;;;0.50;;
61322;SDS011;47203;48.428;11.974;2023-04-16T11:44:24;1.33;;;0.65;;
61322;SDS011;47203;48.428;11.974;2023-04-16T11:46:37;0.90;;;0.68;;
61322;SDS011;47203;48.428;11.974;2023-04-16T11:48:46;1.10;;;0.77;;
61322;SDS011;47203;48.428;11.974;2023-04-16T11:50:58;0.93;;;0.73;;
61322;SDS011;47203;48.428;11.974;2023-04-16T11:53:04;0.60;;;0.55;;
61322;SDS011;47203;48.428;11.974;2023-04-16T11:55:09;0.75;;;0.60;;
61322;SDS011;47203;48.428;11.974;2023-04-16T11:57:15;0.70;;;0.45;;
61322;SDS011;47203;48.428;11.974;2023-04-16T11:59:27;0.70;;;0.60;;
61322;SDS011;47203;48.428;11.974;2023-04-16T12:01:34;1.40;;;0.73;;
61322;SDS011;47203;48.428;11.974;2023-04-16T12:03:40;0.50;;;0.40;;
61322;SDS011;47203;48.428;11.974;2023-04-16T12:05:47;0.80;;;0.50;;
61322;SDS011;47203;48.428;11.974;2023-04-16T12:07:55;0.52;;;0.50;;
61322;SDS011;47203;48.428;11.974;2023-04-16T12:10:06;1.02;;;0.40;;
61322;SDS011;47203;48.428;11.974;2023-04-16T12:14:33;0.63;;;0.40;;
61322;SDS011;47203;48.428;11.974;2023-04-16T12:16:38;0.35;;;0.35;;
61322;SDS011;47203;48.428;11.974;2023-04-16T12:18:57;0.65;;;0.50;;
61322;SDS011;47203;48.428;11.974;2023-04-16T12:21:04;0.50;;;0.47;;
61322;SDS011;47203;48.428;11.974;2023-04-16T12:23:20;1.00;;;0.50;;
61322;SDS011;47203;48.428;11.974;2023-04-16T12:25:26;0.60;;;0.40;;
61322;SDS011;47203;48.428;11.974;2023-04-16T12:30:03;0.90;;;0.55;;
61322;SDS011;47203;48.428;11.974;2023-04-16T12:32:19;1.65;;;0.73;;
61322;SDS011;47203;48.428;11.974;2023-04-16T12:34:25;0.88;;;0.65;;